sensor_id;sensor_type;location;lat;lon;timestamp;P1;durP1;ratioP1;P2;durP2;ratioP2
68108;SDS011;54893;49.864;19.084;2022-08-19T00:04:53;29.70;;;17.23;;
68108;SDS011;54893;49.864;19.084;2022-08-19T00:09:54;32.67;;;18.53;;
68108;SDS011;54893;49.864;19.084;2022-08-19T00:14:54;35.93;;;18.60;;
68108;SDS011;54893;49.864;19.084;2022-08-19T00:19:54;35.37;;;18.87;;
68108;SDS011;54893;49.864;19.084;2022-08-19T00:24:55;36.80;;;18.70;;
68108;SDS011;54893;49.864;19.084;2022-08-19T00:29:56;30.60;;;18.20;;
68108;SDS011;54893;49.864;19.084;2022-08-19T00:34:56;34.97;;;20.00;;
68108;SDS011;54893;49.864;19.084;2022-08-19T00:39:57;32.47;;;17.20;;
68108;SDS011;54893;49.864;19.084;2022-08-19T00:44:57;33.03;;;17.93;;
68108;SDS011;54893;49.864;19.084;2022-08-19T00:49:57;32.13;;;17.63;;
68108;SDS011;54893;49.864;19.084;2022-08-19T00:54:59;33.20;;;18.55;;
68108;SDS011;54893;49.864;19.084;2022-08-19T01:00:03;33.60;;;18.83;;
68108;SDS011;54893;49.864;19.084;2022-08-19T01:05:08;30.38;;;18.15;;
68108;SDS011;54893;49.864;19.084;2022-08-19T01:10:12;31.70;;;18.47;;
68108;SDS011;54893;49.864;19.084;2022-08-19T01:15:20;31.17;;;18.80;;
68108;SDS011;54893;49.864;19.084;2022-08-19T01:20:24;30.23;;;17.55;;
68108;SDS011;54893;49.864;19.084;2022-08-19T01:25:27;33.03;;;18.40;;
68108;SDS011;54893;49.864;19.084;2022-08-19T01:30:32;33.77;;;18.43;;
68108;SDS011;54893;49.864;19.084;2022-08-19T01:35:34;28.38;;;17.40;;
68108;SDS011;54893;49.864;19.084;2022-08-19T01:40:36;35.10;;;19.10;;
68108;SDS011;54893;49.864;19.084;2022-08-19T01:45:39;32.35;;;18.27;;
68108;SDS011;54893;49.864;19.084;2022-08-19T01:50:40;28.58;;;18.23;;
68108;SDS011;54893;49.864;19.084;2022-08-19T01:55:41;31.55;;;17.13;;
68108;SDS011;54893;49.864;19.084;2022-08-19T02:00:43;32.03;;;17.70;;
68108;SDS011;54893;49.864;19.084;2022-08-19T02:05:44;30.67;;;16.40;;
68108;SDS011;54893;49.864;19.084;2022-08-19T02:10:45;30.92;;;17.38;;
68108;SDS011;54893;49.864;19.084;2022-08-19T02:15:45;27.35;;;16.20;;
68108;SDS011;54893;49.864;19.084;2022-08-19T02:20:46;24.60;;;15.27;;
68108;SDS011;54893;49.864;19.084;2022-08-19T02:25:49;23.17;;;14.82;;
68108;SDS011;54893;49.864;19.084;2022-08-19T02:30:51;25.65;;;15.18;;
68108;SDS011;54893;49.864;19.084;2022-08-19T02:35:52;24.27;;;15.43;;
68108;SDS011;54893;49.864;19.084;2022-08-19T02:40:53;25.10;;;15.10;;
68108;SDS011;54893;49.864;19.084;2022-08-19T02:45:56;25.40;;;15.63;;
68108;SDS011;54893;49.864;19.084;2022-08-19T02:50:56;25.83;;;15.87;;
68108;SDS011;54893;49.864;19.084;2022-08-19T02:55:56;34.10;;;15.63;;
68108;SDS011;54893;49.864;19.084;2022-08-19T03:00:57;26.45;;;16.02;;
68108;SDS011;54893;49.864;19.084;2022-08-19T03:06:10;25.60;;;16.33;;
68108;SDS011;54893;49.864;19.084;2022-08-19T03:11:17;24.40;;;15.70;;
68108;SDS011;54893;49.864;19.084;2022-08-19T03:16:21;27.02;;;16.42;;
68108;SDS011;54893;49.864;19.084;2022-08-19T03:21:24;27.58;;;15.45;;
68108;SDS011;54893;49.864;19.084;2022-08-19T03:26:26;26.63;;;15.30;;
68108;SDS011;54893;49.864;19.084;2022-08-19T03:31:27;26.60;;;15.93;;
68108;SDS011;54893;49.864;19.084;2022-08-19T03:36:27;25.53;;;15.73;;
68108;SDS011;54893;49.864;19.084;2022-08-19T03:41:29;25.33;;;15.80;;
68108;SDS011;54893;49.864;19.084;2022-08-19T03:46:32;27.83;;;17.20;;
68108;SDS011;54893;49.864;19.084;2022-08-19T03:51:34;27.55;;;16.90;;
68108;SDS011;54893;49.864;19.084;2022-08-19T03:56:37;30.00;;;16.50;;
68108;SDS011;54893;49.864;19.084;2022-08-19T04:01:38;27.08;;;16.80;;
68108;SDS011;54893;49.864;19.084;2022-08-19T04:06:38;27.83;;;15.37;;
68108;SDS011;54893;49.864;19.084;2022-08-19T04:11:40;27.83;;;16.63;;
68108;SDS011;54893;49.864;19.084;2022-08-19T04:16:42;25.23;;;16.48;;
68108;SDS011;54893;49.864;19.084;2022-08-19T04:21:45;21.47;;;14.73;;
68108;SDS011;54893;49.864;19.084;2022-08-19T04:26:47;26.52;;;14.77;;
68108;SDS011;54893;49.864;19.084;2022-08-19T04:31:49;26.25;;;14.82;;
68108;SDS011;54893;49.864;19.084;2022-08-19T04:36:50;31.25;;;15.48;;
68108;SDS011;54893;49.864;19.084;2022-08-19T04:41:52;38.25;;;15.50;;
68108;SDS011;54893;49.864;19.084;2022-08-19T04:47:10;24.27;;;14.93;;
68108;SDS011;54893;49.864;19.084;2022-08-19T04:52:11;24.93;;;14.47;;
68108;SDS011;54893;49.864;19.084;2022-08-19T04:57:11;25.33;;;14.73;;
68108;SDS011;54893;49.864;19.084;2022-08-19T05:02:12;40.33;;;16.40;;
68108;SDS011;54893;49.864;19.084;2022-08-19T05:07:12;42.70;;;15.30;;
68108;SDS011;54893;49.864;19.084;2022-08-19T05:12:12;22.53;;;13.60;;
68108;SDS011;54893;49.864;19.084;2022-08-19T05:17:13;24.10;;;14.20;;
68108;SDS011;54893;49.864;19.084;2022-08-19T05:22:14;24.08;;;14.35;;
68108;SDS011;54893;49.864;19.084;2022-08-19T05:27:34;20.27;;;12.95;;
68108;SDS011;54893;49.864;19.084;2022-08-19T05:32:35;22.13;;;14.50;;
68108;SDS011;54893;49.864;19.084;2022-08-19T05:37:36;22.23;;;14.33;;
68108;SDS011;54893;49.864;19.084;2022-08-19T05:42:36;20.40;;;12.98;;
68108;SDS011;54893;49.864;19.084;2022-08-19T05:47:37;24.95;;;13.52;;
68108;SDS011;54893;49.864;19.084;2022-08-19T05:52:38;19.27;;;12.70;;
68108;SDS011;54893;49.864;19.084;2022-08-19T05:57:39;20.38;;;13.02;;
68108;SDS011;54893;49.864;19.084;2022-08-19T06:02:39;18.23;;;11.40;;
68108;SDS011;54893;49.864;19.084;2022-08-19T06:07:40;17.33;;;11.63;;
68108;SDS011;54893;49.864;19.084;2022-08-19T06:12:40;19.40;;;11.47;;
68108;SDS011;54893;49.864;19.084;2022-08-19T06:17:41;18.97;;;12.00;;
68108;SDS011;54893;49.864;19.084;2022-08-19T06:22:45;17.85;;;11.60;;
68108;SDS011;54893;49.864;19.084;2022-08-19T06:27:49;15.02;;;11.50;;
68108;SDS011;54893;49.864;19.084;2022-08-19T06:32:49;17.50;;;11.10;;
68108;SDS011;54893;49.864;19.084;2022-08-19T06:37:49;18.40;;;11.97;;
68108;SDS011;54893;49.864;19.084;2022-08-19T06:42:50;20.30;;;11.63;;
68108;SDS011;54893;49.864;19.084;2022-08-19T06:47:50;17.37;;;11.77;;
68108;SDS011;54893;49.864;19.084;2022-08-19T06:52:54;16.40;;;10.13;;
68108;SDS011;54893;49.864;19.084;2022-08-19T06:57:54;15.57;;;11.20;;
68108;SDS011;54893;49.864;19.084;2022-08-19T07:02:54;19.70;;;11.57;;
68108;SDS011;54893;49.864;19.084;2022-08-19T07:07:55;14.07;;;10.77;;
68108;SDS011;54893;49.864;19.084;2022-08-19T07:12:56;19.48;;;11.48;;
68108;SDS011;54893;49.864;19.084;2022-08-19T07:17:56;14.17;;;10.67;;
68108;SDS011;54893;49.864;19.084;2022-08-19T07:22:57;16.83;;;11.20;;
68108;SDS011;54893;49.864;19.084;2022-08-19T07:27:57;15.30;;;10.33;;
68108;SDS011;54893;49.864;19.084;2022-08-19T07:32:57;18.50;;;10.47;;
68108;SDS011;54893;49.864;19.084;2022-08-19T07:37:58;14.97;;;10.40;;
68108;SDS011;54893;49.864;19.084;2022-08-19T07:43:03;23.33;;;10.70;;
68108;SDS011;54893;49.864;19.084;2022-08-19T07:48:03;16.55;;;10.80;;
68108;SDS011;54893;49.864;19.084;2022-08-19T07:53:04;13.80;;;9.57;;
68108;SDS011;54893;49.864;19.084;2022-08-19T07:58:04;14.33;;;9.07;;
68108;SDS011;54893;49.864;19.084;2022-08-19T08:03:04;63.73;;;11.30;;
68108;SDS011;54893;49.864;19.084;2022-08-19T08:08:05;14.83;;;8.63;;
68108;SDS011;54893;49.864;19.084;2022-08-19T08:13:24;15.27;;;9.07;;
68108;SDS011;54893;49.864;19.084;2022-08-19T08:18:25;10.40;;;8.35;;
68108;SDS011;54893;49.864;19.084;2022-08-19T08:23:26;17.27;;;8.85;;
68108;SDS011;54893;49.864;19.084;2022-08-19T08:28:26;12.77;;;8.63;;
68108;SDS011;54893;49.864;19.084;2022-08-19T08:33:27;13.37;;;8.37;;
68108;SDS011;54893;49.864;19.084;2022-08-19T08:38:28;14.60;;;7.90;;
68108;SDS011;54893;49.864;19.084;2022-08-19T08:43:31;14.77;;;8.27;;
68108;SDS011;54893;49.864;19.084;2022-08-19T08:48:48;12.30;;;8.47;;
68108;SDS011;54893;49.864;19.084;2022-08-19T08:54:18;12.57;;;8.30;;
68108;SDS011;54893;49.864;19.084;2022-08-19T08:59:30;11.23;;;8.07;;
68108;SDS011;54893;49.864;19.084;2022-08-19T09:04:34;12.97;;;9.17;;
68108;SDS011;54893;49.864;19.084;2022-08-19T09:09:40;12.95;;;8.73;;
68108;SDS011;54893;49.864;19.084;2022-08-19T09:14:46;15.53;;;9.50;;
68108;SDS011;54893;49.864;19.084;2022-08-19T09:19:58;11.55;;;8.52;;
68108;SDS011;54893;49.864;19.084;2022-08-19T09:25:08;14.30;;;8.80;;
68108;SDS011;54893;49.864;19.084;2022-08-19T09:30:14;12.23;;;8.57;;
68108;SDS011;54893;49.864;19.084;2022-08-19T09:35:26;15.40;;;8.52;;
68108;SDS011;54893;49.864;19.084;2022-08-19T09:40:29;15.73;;;8.50;;
68108;SDS011;54893;49.864;19.084;2022-08-19T09:45:29;18.23;;;9.05;;
68108;SDS011;54893;49.864;19.084;2022-08-19T09:50:30;22.00;;;9.10;;
68108;SDS011;54893;49.864;19.084;2022-08-19T09:55:35;19.75;;;8.93;;
68108;SDS011;54893;49.864;19.084;2022-08-19T10:00:37;14.50;;;9.25;;
68108;SDS011;54893;49.864;19.084;2022-08-19T10:05:38;13.70;;;9.00;;
68108;SDS011;54893;49.864;19.084;2022-08-19T10:10:50;14.90;;;9.10;;
68108;SDS011;54893;49.864;19.084;2022-08-19T10:15:51;14.68;;;9.20;;
68108;SDS011;54893;49.864;19.084;2022-08-19T10:21:01;12.97;;;9.10;;
68108;SDS011;54893;49.864;19.084;2022-08-19T10:26:05;13.63;;;8.80;;
68108;SDS011;54893;49.864;19.084;2022-08-19T10:31:07;19.53;;;10.00;;
68108;SDS011;54893;49.864;19.084;2022-08-19T10:36:11;14.85;;;9.50;;
68108;SDS011;54893;49.864;19.084;2022-08-19T10:41:18;17.77;;;8.98;;
68108;SDS011;54893;49.864;19.084;2022-08-19T10:46:22;14.23;;;9.07;;
68108;SDS011;54893;49.864;19.084;2022-08-19T10:51:24;14.32;;;9.10;;
68108;SDS011;54893;49.864;19.084;2022-08-19T10:56:44;13.37;;;8.77;;
68108;SDS011;54893;49.864;19.084;2022-08-19T11:01:54;12.93;;;9.10;;
68108;SDS011;54893;49.864;19.084;2022-08-19T11:06:59;14.18;;;9.35;;
68108;SDS011;54893;49.864;19.084;2022-08-19T11:11:59;14.87;;;9.17;;
68108;SDS011;54893;49.864;19.084;2022-08-19T11:17:00;24.87;;;9.67;;
68108;SDS011;54893;49.864;19.084;2022-08-19T11:22:01;12.73;;;8.85;;
68108;SDS011;54893;49.864;19.084;2022-08-19T11:27:05;18.10;;;8.77;;
68108;SDS011;54893;49.864;19.084;2022-08-19T11:32:08;15.80;;;8.70;;
68108;SDS011;54893;49.864;19.084;2022-08-19T11:37:10;15.73;;;8.82;;
68108;SDS011;54893;49.864;19.084;2022-08-19T11:42:10;12.27;;;8.60;;
68108;SDS011;54893;49.864;19.084;2022-08-19T11:47:29;13.37;;;8.70;;
68108;SDS011;54893;49.864;19.084;2022-08-19T11:52:30;14.02;;;8.70;;
68108;SDS011;54893;49.864;19.084;2022-08-19T11:57:31;15.33;;;8.67;;
68108;SDS011;54893;49.864;19.084;2022-08-19T12:02:32;14.70;;;8.32;;
68108;SDS011;54893;49.864;19.084;2022-08-19T12:07:33;22.27;;;8.80;;
68108;SDS011;54893;49.864;19.084;2022-08-19T12:12:33;14.10;;;8.50;;
68108;SDS011;54893;49.864;19.084;2022-08-19T12:17:34;14.03;;;8.40;;
68108;SDS011;54893;49.864;19.084;2022-08-19T12:22:35;15.30;;;8.73;;
68108;SDS011;54893;49.864;19.084;2022-08-19T12:27:36;13.67;;;9.23;;
68108;SDS011;54893;49.864;19.084;2022-08-19T12:32:37;12.52;;;8.70;;
68108;SDS011;54893;49.864;19.084;2022-08-19T12:37:38;14.43;;;8.80;;
68108;SDS011;54893;49.864;19.084;2022-08-19T12:42:44;11.70;;;9.32;;
68108;SDS011;54893;49.864;19.084;2022-08-19T12:47:44;13.20;;;9.20;;
68108;SDS011;54893;49.864;19.084;2022-08-19T12:52:46;12.73;;;9.37;;
68108;SDS011;54893;49.864;19.084;2022-08-19T12:57:46;12.57;;;9.33;;
68108;SDS011;54893;49.864;19.084;2022-08-19T13:02:49;15.75;;;9.68;;
68108;SDS011;54893;49.864;19.084;2022-08-19T13:07:51;14.35;;;8.90;;
68108;SDS011;54893;49.864;19.084;2022-08-19T13:12:56;13.23;;;9.30;;
68108;SDS011;54893;49.864;19.084;2022-08-19T13:17:59;13.77;;;9.20;;
68108;SDS011;54893;49.864;19.084;2022-08-19T13:22:59;18.50;;;9.27;;
68108;SDS011;54893;49.864;19.084;2022-08-19T13:28:00;14.07;;;8.57;;
68108;SDS011;54893;49.864;19.084;2022-08-19T13:33:00;15.93;;;9.50;;
68108;SDS011;54893;49.864;19.084;2022-08-19T13:38:18;19.27;;;9.75;;
68108;SDS011;54893;49.864;19.084;2022-08-19T13:43:21;17.10;;;9.23;;
68108;SDS011;54893;49.864;19.084;2022-08-19T13:48:23;16.02;;;9.68;;
68108;SDS011;54893;49.864;19.084;2022-08-19T13:53:26;24.52;;;10.15;;
68108;SDS011;54893;49.864;19.084;2022-08-19T13:58:26;40.17;;;10.53;;
68108;SDS011;54893;49.864;19.084;2022-08-19T14:03:26;16.40;;;9.37;;
68108;SDS011;54893;49.864;19.084;2022-08-19T14:08:27;15.70;;;10.53;;
68108;SDS011;54893;49.864;19.084;2022-08-19T14:13:29;13.25;;;9.93;;
68108;SDS011;54893;49.864;19.084;2022-08-19T14:18:29;17.15;;;9.82;;
68108;SDS011;54893;49.864;19.084;2022-08-19T14:23:30;12.90;;;9.55;;
68108;SDS011;54893;49.864;19.084;2022-08-19T14:28:31;21.87;;;9.70;;
68108;SDS011;54893;49.864;19.084;2022-08-19T14:33:31;16.23;;;9.33;;
68108;SDS011;54893;49.864;19.084;2022-08-19T14:38:32;16.52;;;8.95;;
68108;SDS011;54893;49.864;19.084;2022-08-19T14:43:33;18.07;;;9.83;;
68108;SDS011;54893;49.864;19.084;2022-08-19T14:48:34;13.38;;;9.68;;
68108;SDS011;54893;49.864;19.084;2022-08-19T14:53:36;13.67;;;9.53;;
68108;SDS011;54893;49.864;19.084;2022-08-19T14:58:37;42.57;;;10.40;;
68108;SDS011;54893;49.864;19.084;2022-08-19T15:03:38;17.38;;;9.95;;
68108;SDS011;54893;49.864;19.084;2022-08-19T15:08:40;36.53;;;10.47;;
68108;SDS011;54893;49.864;19.084;2022-08-19T15:13:43;15.00;;;9.30;;
68108;SDS011;54893;49.864;19.084;2022-08-19T15:18:46;11.00;;;8.75;;
68108;SDS011;54893;49.864;19.084;2022-08-19T15:23:50;15.63;;;8.50;;
68108;SDS011;54893;49.864;19.084;2022-08-19T15:28:50;14.07;;;8.67;;
68108;SDS011;54893;49.864;19.084;2022-08-19T15:33:51;16.77;;;9.97;;
68108;SDS011;54893;49.864;19.084;2022-08-19T15:38:51;14.13;;;9.30;;
68108;SDS011;54893;49.864;19.084;2022-08-19T15:43:56;12.73;;;9.40;;
68108;SDS011;54893;49.864;19.084;2022-08-19T15:48:59;16.30;;;8.80;;
68108;SDS011;54893;49.864;19.084;2022-08-19T15:54:01;12.20;;;8.68;;
68108;SDS011;54893;49.864;19.084;2022-08-19T15:59:04;10.93;;;8.77;;
68108;SDS011;54893;49.864;19.084;2022-08-19T16:04:22;11.93;;;9.17;;
68108;SDS011;54893;49.864;19.084;2022-08-19T16:09:41;15.05;;;9.48;;
68108;SDS011;54893;49.864;19.084;2022-08-19T16:14:42;16.43;;;9.67;;
68108;SDS011;54893;49.864;19.084;2022-08-19T16:19:42;16.63;;;9.50;;
68108;SDS011;54893;49.864;19.084;2022-08-19T16:24:42;15.53;;;10.10;;
68108;SDS011;54893;49.864;19.084;2022-08-19T16:29:43;22.53;;;10.20;;
68108;SDS011;54893;49.864;19.084;2022-08-19T16:34:44;22.20;;;11.50;;
68108;SDS011;54893;49.864;19.084;2022-08-19T16:39:45;18.58;;;11.52;;
68108;SDS011;54893;49.864;19.084;2022-08-19T16:44:45;22.77;;;11.83;;
68108;SDS011;54893;49.864;19.084;2022-08-19T16:49:46;21.53;;;12.17;;
68108;SDS011;54893;49.864;19.084;2022-08-19T16:54:46;24.73;;;11.20;;
68108;SDS011;54893;49.864;19.084;2022-08-19T16:59:47;21.67;;;11.13;;
68108;SDS011;54893;49.864;19.084;2022-08-19T17:04:48;21.10;;;11.50;;
68108;SDS011;54893;49.864;19.084;2022-08-19T17:09:50;20.67;;;12.20;;
68108;SDS011;54893;49.864;19.084;2022-08-19T17:14:51;25.93;;;12.97;;
68108;SDS011;54893;49.864;19.084;2022-08-19T17:19:51;20.60;;;12.60;;
68108;SDS011;54893;49.864;19.084;2022-08-19T17:24:52;22.13;;;13.93;;
68108;SDS011;54893;49.864;19.084;2022-08-19T17:29:53;21.53;;;11.40;;
68108;SDS011;54893;49.864;19.084;2022-08-19T17:34:53;21.77;;;10.77;;
68108;SDS011;54893;49.864;19.084;2022-08-19T17:39:54;17.77;;;10.67;;
68108;SDS011;54893;49.864;19.084;2022-08-19T17:44:54;21.02;;;10.55;;
68108;SDS011;54893;49.864;19.084;2022-08-19T17:49:58;23.17;;;11.93;;
68108;SDS011;54893;49.864;19.084;2022-08-19T17:54:58;34.40;;;19.83;;
68108;SDS011;54893;49.864;19.084;2022-08-19T17:59:59;46.23;;;24.73;;
68108;SDS011;54893;49.864;19.084;2022-08-19T18:04:59;41.87;;;24.90;;
68108;SDS011;54893;49.864;19.084;2022-08-19T18:09:59;44.67;;;23.73;;
68108;SDS011;54893;49.864;19.084;2022-08-19T18:15:01;53.88;;;23.00;;
68108;SDS011;54893;49.864;19.084;2022-08-19T18:20:07;69.35;;;23.70;;
68108;SDS011;54893;49.864;19.084;2022-08-19T18:25:14;45.85;;;20.42;;
68108;SDS011;54893;49.864;19.084;2022-08-19T18:30:23;41.10;;;19.10;;
68108;SDS011;54893;49.864;19.084;2022-08-19T18:35:26;45.83;;;21.47;;
68108;SDS011;54893;49.864;19.084;2022-08-19T18:40:31;36.78;;;19.60;;
68108;SDS011;54893;49.864;19.084;2022-08-19T18:45:50;45.25;;;21.83;;
68108;SDS011;54893;49.864;19.084;2022-08-19T18:51:09;49.83;;;22.10;;
68108;SDS011;54893;49.864;19.084;2022-08-19T18:56:11;49.03;;;20.95;;
68108;SDS011;54893;49.864;19.084;2022-08-19T19:01:15;45.03;;;22.67;;
68108;SDS011;54893;49.864;19.084;2022-08-19T19:06:25;45.10;;;22.00;;
68108;SDS011;54893;49.864;19.084;2022-08-19T19:11:33;46.10;;;23.85;;
68108;SDS011;54893;49.864;19.084;2022-08-19T19:16:40;46.08;;;22.65;;
68108;SDS011;54893;49.864;19.084;2022-08-19T19:21:46;45.83;;;21.95;;
68108;SDS011;54893;49.864;19.084;2022-08-19T19:26:49;47.30;;;22.03;;
68108;SDS011;54893;49.864;19.084;2022-08-19T19:31:51;46.30;;;20.35;;
68108;SDS011;54893;49.864;19.084;2022-08-19T19:36:51;45.07;;;21.00;;
68108;SDS011;54893;49.864;19.084;2022-08-19T19:41:52;47.47;;;21.80;;
68108;SDS011;54893;49.864;19.084;2022-08-19T19:46:52;48.25;;;21.08;;
68108;SDS011;54893;49.864;19.084;2022-08-19T19:51:54;46.78;;;20.38;;
68108;SDS011;54893;49.864;19.084;2022-08-19T19:56:55;45.57;;;19.97;;
68108;SDS011;54893;49.864;19.084;2022-08-19T20:01:55;47.70;;;21.33;;
68108;SDS011;54893;49.864;19.084;2022-08-19T20:06:56;45.70;;;21.15;;
68108;SDS011;54893;49.864;19.084;2022-08-19T20:11:56;41.07;;;19.70;;
68108;SDS011;54893;49.864;19.084;2022-08-19T20:17:01;41.07;;;19.70;;
68108;SDS011;54893;49.864;19.084;2022-08-19T20:22:04;36.70;;;19.10;;
68108;SDS011;54893;49.864;19.084;2022-08-19T20:27:05;36.77;;;18.30;;
68108;SDS011;54893;49.864;19.084;2022-08-19T20:32:06;47.30;;;19.50;;
68108;SDS011;54893;49.864;19.084;2022-08-19T20:37:07;44.83;;;20.50;;
68108;SDS011;54893;49.864;19.084;2022-08-19T20:42:08;41.60;;;20.77;;
68108;SDS011;54893;49.864;19.084;2022-08-19T20:47:08;46.93;;;22.30;;
68108;SDS011;54893;49.864;19.084;2022-08-19T20:52:08;50.63;;;21.90;;
68108;SDS011;54893;49.864;19.084;2022-08-19T20:57:09;48.15;;;22.48;;
68108;SDS011;54893;49.864;19.084;2022-08-19T21:02:10;46.30;;;22.40;;
68108;SDS011;54893;49.864;19.084;2022-08-19T21:07:10;37.83;;;18.93;;
68108;SDS011;54893;49.864;19.084;2022-08-19T21:12:11;37.10;;;19.93;;
68108;SDS011;54893;49.864;19.084;2022-08-19T21:17:12;40.00;;;18.33;;
68108;SDS011;54893;49.864;19.084;2022-08-19T21:22:12;38.75;;;19.08;;
68108;SDS011;54893;49.864;19.084;2022-08-19T21:27:13;38.33;;;18.45;;
68108;SDS011;54893;49.864;19.084;2022-08-19T21:32:13;39.70;;;18.25;;
68108;SDS011;54893;49.864;19.084;2022-08-19T21:37:13;36.90;;;19.00;;
68108;SDS011;54893;49.864;19.084;2022-08-19T21:42:14;43.03;;;19.83;;
68108;SDS011;54893;49.864;19.084;2022-08-19T21:47:15;41.80;;;19.50;;
68108;SDS011;54893;49.864;19.084;2022-08-19T21:52:22;34.10;;;18.27;;
68108;SDS011;54893;49.864;19.084;2022-08-19T21:57:24;40.58;;;20.38;;
68108;SDS011;54893;49.864;19.084;2022-08-19T22:02:24;40.87;;;20.70;;
68108;SDS011;54893;49.864;19.084;2022-08-19T22:07:26;48.35;;;21.60;;
68108;SDS011;54893;49.864;19.084;2022-08-19T22:12:28;42.63;;;22.37;;
68108;SDS011;54893;49.864;19.084;2022-08-19T22:17:30;46.87;;;21.77;;
68108;SDS011;54893;49.864;19.084;2022-08-19T22:22:31;42.78;;;20.73;;
68108;SDS011;54893;49.864;19.084;2022-08-19T22:27:32;45.20;;;21.20;;
68108;SDS011;54893;49.864;19.084;2022-08-19T22:32:32;46.33;;;21.13;;
68108;SDS011;54893;49.864;19.084;2022-08-19T22:37:33;41.53;;;20.87;;
68108;SDS011;54893;49.864;19.084;2022-08-19T22:42:33;37.63;;;18.15;;
68108;SDS011;54893;49.864;19.084;2022-08-19T22:47:34;28.83;;;14.10;;
68108;SDS011;54893;49.864;19.084;2022-08-19T22:52:35;26.13;;;14.43;;
68108;SDS011;54893;49.864;19.084;2022-08-19T22:57:35;29.97;;;14.50;;
68108;SDS011;54893;49.864;19.084;2022-08-19T23:02:36;29.13;;;15.60;;
68108;SDS011;54893;49.864;19.084;2022-08-19T23:07:39;27.98;;;14.68;;
68108;SDS011;54893;49.864;19.084;2022-08-19T23:12:41;27.20;;;15.10;;
68108;SDS011;54893;49.864;19.084;2022-08-19T23:17:44;28.77;;;14.80;;
68108;SDS011;54893;49.864;19.084;2022-08-19T23:22:45;32.27;;;15.57;;
68108;SDS011;54893;49.864;19.084;2022-08-19T23:27:48;32.38;;;15.85;;
68108;SDS011;54893;49.864;19.084;2022-08-19T23:33:16;27.52;;;15.90;;
68108;SDS011;54893;49.864;19.084;2022-08-19T23:38:23;31.48;;;16.42;;
68108;SDS011;54893;49.864;19.084;2022-08-19T23:43:24;25.88;;;13.73;;
68108;SDS011;54893;49.864;19.084;2022-08-19T23:48:28;31.37;;;13.17;;
68108;SDS011;54893;49.864;19.084;2022-08-19T23:53:31;26.38;;;12.93;;
68108;SDS011;54893;49.864;19.084;2022-08-19T23:58:34;23.87;;;11.37;;
